sensor_id;sensor_type;location;lat;lon;timestamp;P1;durP1;ratioP1;P2;durP2;ratioP2
146;SDS011;45999;48.808;9.182;2023-06-10T00:00:43;6.33;;;5.73;;
146;SDS011;45999;48.808;9.182;2023-06-10T00:03:10;5.83;;;5.33;;
146;SDS011;45999;48.808;9.182;2023-06-10T00:05:37;6.17;;;5.57;;
146;SDS011;45999;48.808;9.182;2023-06-10T00:08:04;5.93;;;5.43;;
146;SDS011;45999;48.808;9.182;2023-06-10T00:10:33;6.00;;;5.50;;
146;SDS011;45999;48.808;9.182;2023-06-10T00:13:04;5.37;;;4.87;;
146;SDS011;45999;48.808;9.182;2023-06-10T00:15:33;5.77;;;5.27;;
146;SDS011;45999;48.808;9.182;2023-06-10T00:18:00;5.67;;;5.10;;
146;SDS011;45999;48.808;9.182;2023-06-10T00:20:27;6.37;;;5.13;;
146;SDS011;45999;48.808;9.182;2023-06-10T00:22:55;5.13;;;4.73;;
146;SDS011;45999;48.808;9.182;2023-06-10T00:25:23;6.83;;;5.03;;
146;SDS011;45999;48.808;9.182;2023-06-10T00:27:50;5.17;;;4.67;;
146;SDS011;45999;48.808;9.182;2023-06-10T00:30:17;5.30;;;4.87;;
146;SDS011;45999;48.808;9.182;2023-06-10T00:32:43;6.17;;;4.93;;
146;SDS011;45999;48.808;9.182;2023-06-10T00:35:10;4.93;;;4.43;;
146;SDS011;45999;48.808;9.182;2023-06-10T00:37:36;5.20;;;4.80;;
146;SDS011;45999;48.808;9.182;2023-06-10T00:40:03;5.07;;;4.57;;
146;SDS011;45999;48.808;9.182;2023-06-10T00:42:30;4.97;;;4.57;;
146;SDS011;45999;48.808;9.182;2023-06-10T00:44:57;5.23;;;4.80;;
146;SDS011;45999;48.808;9.182;2023-06-10T00:47:23;7.57;;;5.37;;
146;SDS011;45999;48.808;9.182;2023-06-10T00:49:51;5.47;;;5.07;;
146;SDS011;45999;48.808;9.182;2023-06-10T00:52:17;5.47;;;4.97;;
146;SDS011;45999;48.808;9.182;2023-06-10T00:54:44;6.93;;;4.90;;
146;SDS011;45999;48.808;9.182;2023-06-10T00:57:11;7.63;;;5.30;;
146;SDS011;45999;48.808;9.182;2023-06-10T00:59:39;6.60;;;5.90;;
146;SDS011;45999;48.808;9.182;2023-06-10T01:02:07;6.40;;;5.90;;
146;SDS011;45999;48.808;9.182;2023-06-10T01:04:34;6.53;;;5.77;;
146;SDS011;45999;48.808;9.182;2023-06-10T01:07:09;6.67;;;5.47;;
146;SDS011;45999;48.808;9.182;2023-06-10T01:12:37;6.27;;;5.70;;
146;SDS011;45999;48.808;9.182;2023-06-10T01:15:07;6.20;;;5.60;;
146;SDS011;45999;48.808;9.182;2023-06-10T01:17:37;5.30;;;4.87;;
146;SDS011;45999;48.808;9.182;2023-06-10T01:20:18;4.93;;;4.53;;
146;SDS011;45999;48.808;9.182;2023-06-10T01:22:45;6.37;;;4.60;;
146;SDS011;45999;48.808;9.182;2023-06-10T01:25:12;5.03;;;4.63;;
146;SDS011;45999;48.808;9.182;2023-06-10T01:27:39;4.67;;;4.17;;
146;SDS011;45999;48.808;9.182;2023-06-10T01:30:14;4.70;;;4.30;;
146;SDS011;45999;48.808;9.182;2023-06-10T01:32:45;5.80;;;4.57;;
146;SDS011;45999;48.808;9.182;2023-06-10T01:35:14;6.90;;;4.03;;
146;SDS011;45999;48.808;9.182;2023-06-10T01:37:42;4.70;;;4.30;;
146;SDS011;45999;48.808;9.182;2023-06-10T01:40:11;4.90;;;4.40;;
146;SDS011;45999;48.808;9.182;2023-06-10T01:42:38;5.00;;;4.60;;
146;SDS011;45999;48.808;9.182;2023-06-10T01:45:05;5.30;;;4.73;;
146;SDS011;45999;48.808;9.182;2023-06-10T01:47:32;4.67;;;4.17;;
146;SDS011;45999;48.808;9.182;2023-06-10T01:49:58;4.57;;;4.17;;
146;SDS011;45999;48.808;9.182;2023-06-10T01:52:24;4.43;;;4.13;;
146;SDS011;45999;48.808;9.182;2023-06-10T01:54:51;4.93;;;4.50;;
146;SDS011;45999;48.808;9.182;2023-06-10T01:57:17;4.73;;;4.33;;
146;SDS011;45999;48.808;9.182;2023-06-10T01:59:44;5.90;;;5.30;;
146;SDS011;45999;48.808;9.182;2023-06-10T02:02:11;6.50;;;4.97;;
146;SDS011;45999;48.808;9.182;2023-06-10T02:04:37;6.57;;;5.97;;
146;SDS011;45999;48.808;9.182;2023-06-10T02:07:04;5.80;;;5.30;;
146;SDS011;45999;48.808;9.182;2023-06-10T02:09:30;5.70;;;5.20;;
146;SDS011;45999;48.808;9.182;2023-06-10T02:11:59;6.43;;;5.80;;
146;SDS011;45999;48.808;9.182;2023-06-10T02:14:26;6.57;;;6.07;;
146;SDS011;45999;48.808;9.182;2023-06-10T02:16:52;6.43;;;5.93;;
146;SDS011;45999;48.808;9.182;2023-06-10T02:19:21;6.50;;;5.93;;
146;SDS011;45999;48.808;9.182;2023-06-10T02:21:48;6.33;;;5.63;;
146;SDS011;45999;48.808;9.182;2023-06-10T02:24:15;6.20;;;5.70;;
146;SDS011;45999;48.808;9.182;2023-06-10T02:26:41;6.27;;;5.63;;
146;SDS011;45999;48.808;9.182;2023-06-10T02:29:07;6.57;;;5.93;;
146;SDS011;45999;48.808;9.182;2023-06-10T02:31:34;6.50;;;6.00;;
146;SDS011;45999;48.808;9.182;2023-06-10T02:34:01;7.10;;;5.67;;
146;SDS011;45999;48.808;9.182;2023-06-10T02:36:28;6.43;;;5.83;;
146;SDS011;45999;48.808;9.182;2023-06-10T02:38:55;6.83;;;6.23;;
146;SDS011;45999;48.808;9.182;2023-06-10T02:41:21;7.37;;;5.93;;
146;SDS011;45999;48.808;9.182;2023-06-10T02:43:49;7.03;;;6.43;;
146;SDS011;45999;48.808;9.182;2023-06-10T02:46:16;7.47;;;6.27;;
146;SDS011;45999;48.808;9.182;2023-06-10T02:48:43;7.13;;;6.47;;
146;SDS011;45999;48.808;9.182;2023-06-10T02:51:10;6.80;;;6.20;;
146;SDS011;45999;48.808;9.182;2023-06-10T02:53:36;6.17;;;5.67;;
146;SDS011;45999;48.808;9.182;2023-06-10T02:56:03;6.10;;;5.60;;
146;SDS011;45999;48.808;9.182;2023-06-10T02:58:29;7.17;;;6.57;;
146;SDS011;45999;48.808;9.182;2023-06-10T03:00:56;7.90;;;5.93;;
146;SDS011;45999;48.808;9.182;2023-06-10T03:03:23;7.30;;;6.53;;
146;SDS011;45999;48.808;9.182;2023-06-10T03:05:50;6.90;;;5.77;;
146;SDS011;45999;48.808;9.182;2023-06-10T03:08:17;6.43;;;5.83;;
146;SDS011;45999;48.808;9.182;2023-06-10T03:10:43;6.43;;;5.97;;
146;SDS011;45999;48.808;9.182;2023-06-10T03:13:09;7.30;;;6.03;;
146;SDS011;45999;48.808;9.182;2023-06-10T03:15:36;7.00;;;6.30;;
146;SDS011;45999;48.808;9.182;2023-06-10T03:18:02;6.50;;;6.00;;
146;SDS011;45999;48.808;9.182;2023-06-10T03:20:29;7.03;;;6.43;;
146;SDS011;45999;48.808;9.182;2023-06-10T03:22:55;6.60;;;6.00;;
146;SDS011;45999;48.808;9.182;2023-06-10T03:25:21;6.37;;;5.87;;
146;SDS011;45999;48.808;9.182;2023-06-10T03:27:48;7.33;;;6.10;;
146;SDS011;45999;48.808;9.182;2023-06-10T03:30:14;7.23;;;6.03;;
146;SDS011;45999;48.808;9.182;2023-06-10T03:32:41;6.50;;;6.00;;
146;SDS011;45999;48.808;9.182;2023-06-10T03:35:08;6.00;;;5.50;;
146;SDS011;45999;48.808;9.182;2023-06-10T03:37:34;6.07;;;5.57;;
146;SDS011;45999;48.808;9.182;2023-06-10T03:40:01;7.10;;;6.40;;
146;SDS011;45999;48.808;9.182;2023-06-10T03:42:28;7.17;;;6.53;;
146;SDS011;45999;48.808;9.182;2023-06-10T03:44:55;6.60;;;6.10;;
146;SDS011;45999;48.808;9.182;2023-06-10T03:47:21;6.60;;;5.90;;
146;SDS011;45999;48.808;9.182;2023-06-10T03:49:47;6.60;;;6.00;;
146;SDS011;45999;48.808;9.182;2023-06-10T03:52:14;6.67;;;6.00;;
146;SDS011;45999;48.808;9.182;2023-06-10T03:54:40;8.07;;;6.07;;
146;SDS011;45999;48.808;9.182;2023-06-10T03:57:06;5.87;;;5.37;;
146;SDS011;45999;48.808;9.182;2023-06-10T03:59:33;6.77;;;6.07;;
146;SDS011;45999;48.808;9.182;2023-06-10T04:01:59;7.00;;;6.40;;
146;SDS011;45999;48.808;9.182;2023-06-10T04:04:26;6.80;;;6.20;;
146;SDS011;45999;48.808;9.182;2023-06-10T04:06:53;6.53;;;6.00;;
146;SDS011;45999;48.808;9.182;2023-06-10T04:09:19;8.03;;;6.50;;
146;SDS011;45999;48.808;9.182;2023-06-10T04:11:45;6.83;;;6.13;;
146;SDS011;45999;48.808;9.182;2023-06-10T04:14:13;6.67;;;6.07;;
146;SDS011;45999;48.808;9.182;2023-06-10T04:16:40;6.43;;;5.67;;
146;SDS011;45999;48.808;9.182;2023-06-10T04:19:07;6.63;;;6.03;;
146;SDS011;45999;48.808;9.182;2023-06-10T04:21:34;6.40;;;5.77;;
146;SDS011;45999;48.808;9.182;2023-06-10T04:24:01;6.10;;;5.60;;
146;SDS011;45999;48.808;9.182;2023-06-10T04:26:27;6.47;;;5.90;;
146;SDS011;45999;48.808;9.182;2023-06-10T04:28:54;6.47;;;5.83;;
146;SDS011;45999;48.808;9.182;2023-06-10T04:31:20;6.07;;;5.57;;
146;SDS011;45999;48.808;9.182;2023-06-10T04:33:46;6.13;;;5.60;;
146;SDS011;45999;48.808;9.182;2023-06-10T04:36:13;6.57;;;5.97;;
146;SDS011;45999;48.808;9.182;2023-06-10T04:38:39;7.40;;;6.07;;
146;SDS011;45999;48.808;9.182;2023-06-10T04:41:06;6.63;;;5.80;;
146;SDS011;45999;48.808;9.182;2023-06-10T04:43:32;6.10;;;5.60;;
146;SDS011;45999;48.808;9.182;2023-06-10T04:45:59;5.80;;;5.30;;
146;SDS011;45999;48.808;9.182;2023-06-10T04:48:25;5.97;;;5.47;;
146;SDS011;45999;48.808;9.182;2023-06-10T04:50:52;6.50;;;5.90;;
146;SDS011;45999;48.808;9.182;2023-06-10T04:53:18;7.07;;;6.40;;
146;SDS011;45999;48.808;9.182;2023-06-10T04:55:45;7.07;;;5.90;;
146;SDS011;45999;48.808;9.182;2023-06-10T04:58:13;5.50;;;5.00;;
146;SDS011;45999;48.808;9.182;2023-06-10T05:00:39;7.53;;;5.67;;
146;SDS011;45999;48.808;9.182;2023-06-10T05:03:06;5.60;;;5.20;;
146;SDS011;45999;48.808;9.182;2023-06-10T05:05:32;5.77;;;5.27;;
146;SDS011;45999;48.808;9.182;2023-06-10T05:07:58;5.47;;;4.90;;
146;SDS011;45999;48.808;9.182;2023-06-10T05:10:25;6.67;;;5.17;;
146;SDS011;45999;48.808;9.182;2023-06-10T05:12:51;5.33;;;4.73;;
146;SDS011;45999;48.808;9.182;2023-06-10T05:15:17;4.80;;;4.40;;
146;SDS011;45999;48.808;9.182;2023-06-10T05:17:44;4.73;;;4.33;;
146;SDS011;45999;48.808;9.182;2023-06-10T05:20:10;4.37;;;4.07;;
146;SDS011;45999;48.808;9.182;2023-06-10T05:22:38;4.50;;;4.10;;
146;SDS011;45999;48.808;9.182;2023-06-10T05:25:05;4.50;;;3.77;;
146;SDS011;45999;48.808;9.182;2023-06-10T05:27:31;4.50;;;4.03;;
146;SDS011;45999;48.808;9.182;2023-06-10T05:29:58;4.40;;;3.90;;
146;SDS011;45999;48.808;9.182;2023-06-10T05:32:24;4.60;;;4.20;;
146;SDS011;45999;48.808;9.182;2023-06-10T05:34:50;4.60;;;4.20;;
146;SDS011;45999;48.808;9.182;2023-06-10T05:37:17;5.70;;;4.83;;
146;SDS011;45999;48.808;9.182;2023-06-10T05:39:43;4.60;;;4.20;;
146;SDS011;45999;48.808;9.182;2023-06-10T05:42:09;5.10;;;4.60;;
146;SDS011;45999;48.808;9.182;2023-06-10T05:44:36;5.27;;;4.83;;
146;SDS011;45999;48.808;9.182;2023-06-10T05:47:02;5.33;;;4.73;;
146;SDS011;45999;48.808;9.182;2023-06-10T05:49:29;4.77;;;4.37;;
146;SDS011;45999;48.808;9.182;2023-06-10T05:51:55;4.93;;;4.53;;
146;SDS011;45999;48.808;9.182;2023-06-10T05:54:23;5.93;;;4.83;;
146;SDS011;45999;48.808;9.182;2023-06-10T05:56:49;5.40;;;5.00;;
146;SDS011;45999;48.808;9.182;2023-06-10T05:59:16;4.87;;;4.43;;
146;SDS011;45999;48.808;9.182;2023-06-10T06:01:42;5.70;;;4.53;;
146;SDS011;45999;48.808;9.182;2023-06-10T06:04:08;5.30;;;4.50;;
146;SDS011;45999;48.808;9.182;2023-06-10T06:06:35;5.00;;;4.70;;
146;SDS011;45999;48.808;9.182;2023-06-10T06:09:04;4.80;;;4.40;;
146;SDS011;45999;48.808;9.182;2023-06-10T06:11:31;4.60;;;4.20;;
146;SDS011;45999;48.808;9.182;2023-06-10T06:13:57;4.93;;;4.53;;
146;SDS011;45999;48.808;9.182;2023-06-10T06:16:23;5.20;;;4.80;;
146;SDS011;45999;48.808;9.182;2023-06-10T06:18:50;5.27;;;4.80;;
146;SDS011;45999;48.808;9.182;2023-06-10T06:21:16;5.20;;;4.70;;
146;SDS011;45999;48.808;9.182;2023-06-10T06:23:42;5.27;;;4.87;;
146;SDS011;45999;48.808;9.182;2023-06-10T06:26:09;5.23;;;4.73;;
146;SDS011;45999;48.808;9.182;2023-06-10T06:28:35;5.30;;;4.90;;
146;SDS011;45999;48.808;9.182;2023-06-10T06:31:02;5.60;;;5.20;;
146;SDS011;45999;48.808;9.182;2023-06-10T06:33:28;5.23;;;4.83;;
146;SDS011;45999;48.808;9.182;2023-06-10T06:35:55;5.10;;;4.70;;
146;SDS011;45999;48.808;9.182;2023-06-10T06:38:21;5.53;;;5.07;;
146;SDS011;45999;48.808;9.182;2023-06-10T06:40:48;5.27;;;4.83;;
146;SDS011;45999;48.808;9.182;2023-06-10T06:43:14;5.67;;;4.87;;
146;SDS011;45999;48.808;9.182;2023-06-10T06:45:42;4.93;;;4.53;;
146;SDS011;45999;48.808;9.182;2023-06-10T06:48:08;5.23;;;4.80;;
146;SDS011;45999;48.808;9.182;2023-06-10T06:50:35;5.30;;;4.90;;
146;SDS011;45999;48.808;9.182;2023-06-10T06:53:01;5.50;;;4.97;;
146;SDS011;45999;48.808;9.182;2023-06-10T06:55:27;6.03;;;5.10;;
146;SDS011;45999;48.808;9.182;2023-06-10T06:57:54;5.40;;;4.90;;
146;SDS011;45999;48.808;9.182;2023-06-10T07:00:20;4.53;;;4.23;;
146;SDS011;45999;48.808;9.182;2023-06-10T07:02:47;5.03;;;4.53;;
146;SDS011;45999;48.808;9.182;2023-06-10T07:05:14;4.93;;;4.53;;
146;SDS011;45999;48.808;9.182;2023-06-10T07:07:40;4.70;;;4.40;;
146;SDS011;45999;48.808;9.182;2023-06-10T07:10:07;5.10;;;4.65;;
146;SDS011;45999;48.808;9.182;2023-06-10T07:12:33;5.33;;;4.77;;
146;SDS011;45999;48.808;9.182;2023-06-10T07:15:00;5.23;;;4.83;;
146;SDS011;45999;48.808;9.182;2023-06-10T07:17:26;5.03;;;4.72;;
146;SDS011;45999;48.808;9.182;2023-06-10T07:19:52;6.20;;;4.72;;
146;SDS011;45999;48.808;9.182;2023-06-10T07:22:22;5.60;;;5.03;;
146;SDS011;45999;48.808;9.182;2023-06-10T07:24:48;5.03;;;4.63;;
146;SDS011;45999;48.808;9.182;2023-06-10T07:27:16;5.00;;;4.53;;
146;SDS011;45999;48.808;9.182;2023-06-10T07:29:42;4.85;;;4.55;;
146;SDS011;45999;48.808;9.182;2023-06-10T07:32:08;4.88;;;4.38;;
146;SDS011;45999;48.808;9.182;2023-06-10T07:34:35;5.10;;;4.70;;
146;SDS011;45999;48.808;9.182;2023-06-10T07:37:01;4.60;;;4.30;;
146;SDS011;45999;48.808;9.182;2023-06-10T07:39:27;5.40;;;5.00;;
146;SDS011;45999;48.808;9.182;2023-06-10T07:41:54;4.95;;;4.55;;
146;SDS011;45999;48.808;9.182;2023-06-10T07:44:22;4.65;;;4.35;;
146;SDS011;45999;48.808;9.182;2023-06-10T07:46:48;4.63;;;3.83;;
146;SDS011;45999;48.808;9.182;2023-06-10T07:49:15;4.95;;;4.45;;
146;SDS011;45999;48.808;9.182;2023-06-10T07:51:41;4.43;;;4.13;;
146;SDS011;45999;48.808;9.182;2023-06-10T07:54:07;4.20;;;3.80;;
146;SDS011;45999;48.808;9.182;2023-06-10T07:56:34;4.43;;;4.13;;
146;SDS011;45999;48.808;9.182;2023-06-10T07:59:00;4.05;;;3.75;;
146;SDS011;45999;48.808;9.182;2023-06-10T08:01:26;4.13;;;3.83;;
146;SDS011;45999;48.808;9.182;2023-06-10T08:03:55;4.20;;;3.90;;
146;SDS011;45999;48.808;9.182;2023-06-10T08:06:21;4.10;;;3.80;;
146;SDS011;45999;48.808;9.182;2023-06-10T08:08:47;4.38;;;4.07;;
146;SDS011;45999;48.808;9.182;2023-06-10T08:11:14;4.85;;;4.47;;
146;SDS011;45999;48.808;9.182;2023-06-10T08:13:40;4.32;;;4.03;;
146;SDS011;45999;48.808;9.182;2023-06-10T08:16:07;5.40;;;4.45;;
146;SDS011;45999;48.808;9.182;2023-06-10T08:18:33;4.78;;;4.20;;
146;SDS011;45999;48.808;9.182;2023-06-10T08:20:59;4.47;;;4.18;;
146;SDS011;45999;48.808;9.182;2023-06-10T08:23:26;4.60;;;4.30;;
146;SDS011;45999;48.808;9.182;2023-06-10T08:25:52;4.72;;;4.32;;
146;SDS011;45999;48.808;9.182;2023-06-10T08:28:18;4.90;;;4.47;;
146;SDS011;45999;48.808;9.182;2023-06-10T08:30:45;5.00;;;4.70;;
146;SDS011;45999;48.808;9.182;2023-06-10T08:33:11;4.90;;;4.50;;
146;SDS011;45999;48.808;9.182;2023-06-10T08:35:37;5.00;;;4.60;;
146;SDS011;45999;48.808;9.182;2023-06-10T08:38:04;5.13;;;4.68;;
146;SDS011;45999;48.808;9.182;2023-06-10T08:40:30;4.82;;;4.32;;
146;SDS011;45999;48.808;9.182;2023-06-10T08:43:00;4.70;;;4.40;;
146;SDS011;45999;48.808;9.182;2023-06-10T08:45:32;5.82;;;4.40;;
146;SDS011;45999;48.808;9.182;2023-06-10T08:48:04;4.90;;;4.50;;
146;SDS011;45999;48.808;9.182;2023-06-10T08:50:35;6.00;;;4.75;;
146;SDS011;45999;48.808;9.182;2023-06-10T08:53:04;4.88;;;4.47;;
146;SDS011;45999;48.808;9.182;2023-06-10T08:55:32;4.80;;;4.40;;
146;SDS011;45999;48.808;9.182;2023-06-10T08:58:01;4.90;;;4.60;;
146;SDS011;45999;48.808;9.182;2023-06-10T09:00:28;5.60;;;5.10;;
146;SDS011;45999;48.808;9.182;2023-06-10T09:02:56;8.57;;;4.50;;
146;SDS011;45999;48.808;9.182;2023-06-10T09:05:25;5.70;;;5.20;;
146;SDS011;45999;48.808;9.182;2023-06-10T09:07:53;4.82;;;4.43;;
146;SDS011;45999;48.808;9.182;2023-06-10T09:10:21;5.15;;;4.75;;
146;SDS011;45999;48.808;9.182;2023-06-10T09:12:47;5.20;;;4.70;;
146;SDS011;45999;48.808;9.182;2023-06-10T09:15:14;4.55;;;4.25;;
146;SDS011;45999;48.808;9.182;2023-06-10T09:17:42;4.97;;;4.57;;
146;SDS011;45999;48.808;9.182;2023-06-10T09:20:10;4.82;;;4.25;;
146;SDS011;45999;48.808;9.182;2023-06-10T09:22:37;4.55;;;4.25;;
146;SDS011;45999;48.808;9.182;2023-06-10T09:27:32;6.78;;;4.13;;
146;SDS011;45999;48.808;9.182;2023-06-10T09:29:58;4.55;;;4.07;;
146;SDS011;45999;48.808;9.182;2023-06-10T09:32:24;5.75;;;4.63;;
146;SDS011;45999;48.808;9.182;2023-06-10T09:34:51;5.15;;;4.38;;
146;SDS011;45999;48.808;9.182;2023-06-10T09:37:21;4.40;;;4.10;;
146;SDS011;45999;48.808;9.182;2023-06-10T09:42:34;4.50;;;4.10;;
146;SDS011;45999;48.808;9.182;2023-06-10T09:45:02;5.25;;;4.40;;
146;SDS011;45999;48.808;9.182;2023-06-10T09:47:30;4.60;;;4.20;;
146;SDS011;45999;48.808;9.182;2023-06-10T09:49:56;4.60;;;4.25;;
146;SDS011;45999;48.808;9.182;2023-06-10T09:52:23;4.57;;;4.18;;
146;SDS011;45999;48.808;9.182;2023-06-10T09:54:53;4.28;;;3.88;;
146;SDS011;45999;48.808;9.182;2023-06-10T09:57:24;4.63;;;4.22;;
146;SDS011;45999;48.808;9.182;2023-06-10T09:59:54;4.47;;;4.18;;
146;SDS011;45999;48.808;9.182;2023-06-10T10:02:21;4.75;;;4.43;;
146;SDS011;45999;48.808;9.182;2023-06-10T10:04:47;4.85;;;4.35;;
146;SDS011;45999;48.808;9.182;2023-06-10T10:07:14;3.90;;;3.70;;
146;SDS011;45999;48.808;9.182;2023-06-10T10:09:41;4.15;;;3.85;;
146;SDS011;45999;48.808;9.182;2023-06-10T10:12:12;4.43;;;4.03;;
146;SDS011;45999;48.808;9.182;2023-06-10T10:14:43;4.03;;;3.72;;
146;SDS011;45999;48.808;9.182;2023-06-10T10:17:14;4.22;;;3.78;;
146;SDS011;45999;48.808;9.182;2023-06-10T10:19:48;4.32;;;3.92;;
146;SDS011;45999;48.808;9.182;2023-06-10T10:22:25;3.95;;;3.65;;
146;SDS011;45999;48.808;9.182;2023-06-10T10:24:56;4.20;;;3.47;;
146;SDS011;45999;48.808;9.182;2023-06-10T10:27:27;4.30;;;4.00;;
146;SDS011;45999;48.808;9.182;2023-06-10T10:29:57;4.60;;;4.30;;
146;SDS011;45999;48.808;9.182;2023-06-10T10:32:29;4.13;;;3.83;;
146;SDS011;45999;48.808;9.182;2023-06-10T10:35:03;4.85;;;4.45;;
146;SDS011;45999;48.808;9.182;2023-06-10T10:37:35;4.68;;;4.28;;
146;SDS011;45999;48.808;9.182;2023-06-10T10:40:01;4.30;;;4.00;;
146;SDS011;45999;48.808;9.182;2023-06-10T10:42:30;4.53;;;3.88;;
146;SDS011;45999;48.808;9.182;2023-06-10T10:44:56;4.35;;;4.03;;
146;SDS011;45999;48.808;9.182;2023-06-10T10:47:25;4.18;;;3.88;;
146;SDS011;45999;48.808;9.182;2023-06-10T10:49:55;4.60;;;4.20;;
146;SDS011;45999;48.808;9.182;2023-06-10T10:52:24;4.28;;;3.88;;
146;SDS011;45999;48.808;9.182;2023-06-10T10:54:52;4.75;;;3.90;;
146;SDS011;45999;48.808;9.182;2023-06-10T10:57:23;4.65;;;4.15;;
146;SDS011;45999;48.808;9.182;2023-06-10T10:59:57;4.20;;;3.80;;
146;SDS011;45999;48.808;9.182;2023-06-10T11:05:04;5.00;;;4.15;;
146;SDS011;45999;48.808;9.182;2023-06-10T11:07:32;4.20;;;3.90;;
146;SDS011;45999;48.808;9.182;2023-06-10T11:10:10;4.60;;;3.95;;
146;SDS011;45999;48.808;9.182;2023-06-10T11:12:53;4.47;;;4.18;;
146;SDS011;45999;48.808;9.182;2023-06-10T11:15:20;4.47;;;4.07;;
146;SDS011;45999;48.808;9.182;2023-06-10T11:18:07;4.03;;;3.55;;
146;SDS011;45999;48.808;9.182;2023-06-10T11:20:45;4.45;;;4.15;;
146;SDS011;45999;48.808;9.182;2023-06-10T11:28:41;4.25;;;3.85;;
146;SDS011;45999;48.808;9.182;2023-06-10T11:31:28;4.40;;;4.07;;
146;SDS011;45999;48.808;9.182;2023-06-10T11:33:59;4.20;;;3.90;;
146;SDS011;45999;48.808;9.182;2023-06-10T11:36:28;4.05;;;3.78;;
146;SDS011;45999;48.808;9.182;2023-06-10T11:41:24;3.53;;;3.22;;
146;SDS011;45999;48.808;9.182;2023-06-10T11:43:52;3.92;;;3.53;;
146;SDS011;45999;48.808;9.182;2023-06-10T11:46:19;4.00;;;3.70;;
146;SDS011;45999;48.808;9.182;2023-06-10T11:48:52;4.50;;;4.20;;
146;SDS011;45999;48.808;9.182;2023-06-10T11:51:20;4.28;;;3.72;;
146;SDS011;45999;48.808;9.182;2023-06-10T11:53:50;4.47;;;4.18;;
146;SDS011;45999;48.808;9.182;2023-06-10T11:56:23;3.85;;;3.50;;
146;SDS011;45999;48.808;9.182;2023-06-10T11:58:54;4.00;;;3.70;;
146;SDS011;45999;48.808;9.182;2023-06-10T12:01:25;3.97;;;3.60;;
146;SDS011;45999;48.808;9.182;2023-06-10T12:03:56;4.00;;;3.78;;
146;SDS011;45999;48.808;9.182;2023-06-10T12:11:52;4.90;;;4.05;;
146;SDS011;45999;48.808;9.182;2023-06-10T12:19:57;4.03;;;3.72;;
146;SDS011;45999;48.808;9.182;2023-06-10T12:22:25;3.95;;;3.65;;
146;SDS011;45999;48.808;9.182;2023-06-10T12:27:25;3.80;;;3.30;;
146;SDS011;45999;48.808;9.182;2023-06-10T12:29:54;3.35;;;3.15;;
146;SDS011;45999;48.808;9.182;2023-06-10T12:32:21;3.80;;;3.50;;
146;SDS011;45999;48.808;9.182;2023-06-10T12:34:54;3.60;;;3.30;;
146;SDS011;45999;48.808;9.182;2023-06-10T12:37:29;3.63;;;3.42;;
146;SDS011;45999;48.808;9.182;2023-06-10T12:39:58;3.80;;;3.50;;
146;SDS011;45999;48.808;9.182;2023-06-10T12:42:27;3.97;;;3.67;;
146;SDS011;45999;48.808;9.182;2023-06-10T12:44:54;4.15;;;3.53;;
146;SDS011;45999;48.808;9.182;2023-06-10T12:47:31;4.05;;;3.65;;
146;SDS011;45999;48.808;9.182;2023-06-10T12:50:00;3.42;;;3.05;;
146;SDS011;45999;48.808;9.182;2023-06-10T12:52:27;4.40;;;4.00;;
146;SDS011;45999;48.808;9.182;2023-06-10T12:54:53;3.42;;;3.13;;
146;SDS011;45999;48.808;9.182;2023-06-10T12:57:21;3.60;;;3.30;;
146;SDS011;45999;48.808;9.182;2023-06-10T12:59:47;3.83;;;3.53;;
146;SDS011;45999;48.808;9.182;2023-06-10T13:02:18;4.82;;;3.30;;
146;SDS011;45999;48.808;9.182;2023-06-10T13:04:49;3.53;;;3.33;;
146;SDS011;45999;48.808;9.182;2023-06-10T13:07:16;3.72;;;3.30;;
146;SDS011;45999;48.808;9.182;2023-06-10T13:09:43;3.30;;;3.10;;
146;SDS011;45999;48.808;9.182;2023-06-10T13:12:10;3.95;;;3.65;;
146;SDS011;45999;48.808;9.182;2023-06-10T13:14:37;3.75;;;3.50;;
146;SDS011;45999;48.808;9.182;2023-06-10T13:17:04;3.60;;;3.17;;
146;SDS011;45999;48.808;9.182;2023-06-10T13:19:32;4.28;;;3.58;;
146;SDS011;45999;48.808;9.182;2023-06-10T13:21:59;3.92;;;3.63;;
146;SDS011;45999;48.808;9.182;2023-06-10T13:24:25;3.78;;;3.38;;
146;SDS011;45999;48.808;9.182;2023-06-10T13:26:52;3.22;;;3.03;;
146;SDS011;45999;48.808;9.182;2023-06-10T13:29:19;4.60;;;3.10;;
146;SDS011;45999;48.808;9.182;2023-06-10T13:31:46;3.38;;;3.08;;
146;SDS011;45999;48.808;9.182;2023-06-10T13:34:12;3.25;;;3.05;;
146;SDS011;45999;48.808;9.182;2023-06-10T13:36:39;3.40;;;3.20;;
146;SDS011;45999;48.808;9.182;2023-06-10T13:39:05;4.05;;;3.15;;
146;SDS011;45999;48.808;9.182;2023-06-10T13:41:32;3.40;;;3.20;;
146;SDS011;45999;48.808;9.182;2023-06-10T13:43:58;3.47;;;3.28;;
146;SDS011;45999;48.808;9.182;2023-06-10T13:46:24;3.53;;;3.33;;
146;SDS011;45999;48.808;9.182;2023-06-10T13:48:51;3.67;;;3.47;;
146;SDS011;45999;48.808;9.182;2023-06-10T13:51:17;3.53;;;3.20;;
146;SDS011;45999;48.808;9.182;2023-06-10T13:53:44;3.75;;;3.45;;
146;SDS011;45999;48.808;9.182;2023-06-10T13:56:10;3.63;;;3.35;;
146;SDS011;45999;48.808;9.182;2023-06-10T13:58:37;3.65;;;3.35;;
146;SDS011;45999;48.808;9.182;2023-06-10T14:01:05;3.70;;;3.40;;
146;SDS011;45999;48.808;9.182;2023-06-10T14:03:31;3.67;;;3.38;;
146;SDS011;45999;48.808;9.182;2023-06-10T14:05:58;3.38;;;3.17;;
146;SDS011;45999;48.808;9.182;2023-06-10T14:08:24;3.15;;;2.95;;
146;SDS011;45999;48.808;9.182;2023-06-10T14:10:50;3.15;;;2.95;;
146;SDS011;45999;48.808;9.182;2023-06-10T14:13:17;3.50;;;3.30;;
146;SDS011;45999;48.808;9.182;2023-06-10T14:15:43;3.78;;;3.47;;
146;SDS011;45999;48.808;9.182;2023-06-10T14:18:10;3.67;;;3.38;;
146;SDS011;45999;48.808;9.182;2023-06-10T14:20:36;3.22;;;3.03;;
146;SDS011;45999;48.808;9.182;2023-06-10T14:23:03;3.63;;;3.35;;
146;SDS011;45999;48.808;9.182;2023-06-10T14:25:29;3.95;;;3.63;;
146;SDS011;45999;48.808;9.182;2023-06-10T14:27:56;3.50;;;3.17;;
146;SDS011;45999;48.808;9.182;2023-06-10T14:30:22;3.53;;;3.22;;
146;SDS011;45999;48.808;9.182;2023-06-10T14:32:49;4.40;;;3.70;;
146;SDS011;45999;48.808;9.182;2023-06-10T14:35:15;3.78;;;3.47;;
146;SDS011;45999;48.808;9.182;2023-06-10T14:37:42;4.38;;;3.08;;
146;SDS011;45999;48.808;9.182;2023-06-10T14:40:08;3.47;;;3.28;;
146;SDS011;45999;48.808;9.182;2023-06-10T14:42:35;3.90;;;3.60;;
146;SDS011;45999;48.808;9.182;2023-06-10T14:45:01;3.75;;;3.55;;
146;SDS011;45999;48.808;9.182;2023-06-10T14:47:28;4.13;;;3.75;;
146;SDS011;45999;48.808;9.182;2023-06-10T14:49:54;3.60;;;3.40;;
146;SDS011;45999;48.808;9.182;2023-06-10T14:52:20;5.18;;;4.03;;
146;SDS011;45999;48.808;9.182;2023-06-10T14:54:47;3.65;;;3.42;;
146;SDS011;45999;48.808;9.182;2023-06-10T14:57:13;4.28;;;3.88;;
146;SDS011;45999;48.808;9.182;2023-06-10T14:59:40;3.70;;;3.47;;
146;SDS011;45999;48.808;9.182;2023-06-10T15:02:06;3.80;;;3.50;;
146;SDS011;45999;48.808;9.182;2023-06-10T15:04:32;4.20;;;3.90;;
146;SDS011;45999;48.808;9.182;2023-06-10T15:06:59;4.13;;;3.85;;
146;SDS011;45999;48.808;9.182;2023-06-10T15:09:26;5.25;;;3.90;;
146;SDS011;45999;48.808;9.182;2023-06-10T15:11:52;4.40;;;4.07;;
146;SDS011;45999;48.808;9.182;2023-06-10T15:14:19;4.32;;;4.03;;
146;SDS011;45999;48.808;9.182;2023-06-10T15:16:45;4.30;;;4.00;;
146;SDS011;45999;48.808;9.182;2023-06-10T15:19:11;4.20;;;3.90;;
146;SDS011;45999;48.808;9.182;2023-06-10T15:21:38;3.67;;;3.38;;
146;SDS011;45999;48.808;9.182;2023-06-10T15:24:04;4.10;;;3.90;;
146;SDS011;45999;48.808;9.182;2023-06-10T15:26:31;3.80;;;3.60;;
146;SDS011;45999;48.808;9.182;2023-06-10T15:28:57;4.20;;;3.80;;
146;SDS011;45999;48.808;9.182;2023-06-10T15:31:28;3.95;;;3.65;;
146;SDS011;45999;48.808;9.182;2023-06-10T15:33:55;4.45;;;4.15;;
146;SDS011;45999;48.808;9.182;2023-06-10T15:36:21;3.42;;;3.17;;
146;SDS011;45999;48.808;9.182;2023-06-10T15:38:48;3.88;;;3.58;;
146;SDS011;45999;48.808;9.182;2023-06-10T15:41:15;3.95;;;3.60;;
146;SDS011;45999;48.808;9.182;2023-06-10T15:43:41;3.67;;;3.47;;
146;SDS011;45999;48.808;9.182;2023-06-10T15:46:08;3.42;;;3.20;;
146;SDS011;45999;48.808;9.182;2023-06-10T15:48:34;3.80;;;3.50;;